createdAt,value
2019-01-15T00:00:33.046Z,1.33
2019-01-15T00:03:38.010Z,1.27
2019-01-15T00:06:43.949Z,0.97
2019-01-15T00:09:48.897Z,1.00
2019-01-15T00:12:54.343Z,1.00
2019-01-15T00:15:59.276Z,1.23
2019-01-15T00:19:03.997Z,1.40
2019-01-15T00:22:09.050Z,3.70
2019-01-15T00:25:13.844Z,2.00
2019-01-15T00:28:18.847Z,1.63
2019-01-15T00:31:23.852Z,1.47
2019-01-15T00:34:28.682Z,1.50
2019-01-15T00:37:33.709Z,1.70
2019-01-15T00:40:38.557Z,1.20
2019-01-15T00:43:43.465Z,1.43
2019-01-15T00:46:48.529Z,1.87
2019-01-15T00:49:53.628Z,1.70
2019-01-15T00:52:58.729Z,1.70
2019-01-15T00:56:04.114Z,1.63
2019-01-15T00:59:09.240Z,1.83
2019-01-15T01:02:14.430Z,2.03
2019-01-15T01:05:19.674Z,2.30
2019-01-15T01:08:24.692Z,1.70
2019-01-15T01:11:29.948Z,2.00
2019-01-15T01:14:34.895Z,2.77
2019-01-15T01:17:40.650Z,2.52
2019-01-15T01:20:45.604Z,2.73
2019-01-15T01:23:50.579Z,2.20
2019-01-15T01:26:55.604Z,2.00
2019-01-15T01:30:00.676Z,2.57
2019-01-15T01:33:05.790Z,1.97
2019-01-15T01:36:10.664Z,1.80
2019-01-15T01:39:15.712Z,1.87
2019-01-15T01:42:20.644Z,2.17
2019-01-15T01:45:25.853Z,1.83
2019-01-15T01:48:31.130Z,2.23
2019-01-15T01:51:36.086Z,2.20
2019-01-15T01:54:41.341Z,4.10
2019-01-15T01:57:46.580Z,3.50
2019-01-15T02:00:51.691Z,2.60
2019-01-15T02:03:56.681Z,2.00
2019-01-15T02:07:01.779Z,2.03
2019-01-15T02:10:08.984Z,2.47
2019-01-15T02:13:13.915Z,1.97
2019-01-15T02:16:18.765Z,2.27
2019-01-15T02:19:23.686Z,1.93
2019-01-15T02:22:28.761Z,2.10
2019-01-15T02:25:33.833Z,2.10
2019-01-15T02:28:38.770Z,1.60
2019-01-15T02:31:43.646Z,2.23
2019-01-15T02:34:48.605Z,2.13
2019-01-15T02:37:53.610Z,2.03
2019-01-15T02:40:58.752Z,1.97
2019-01-15T02:44:03.694Z,2.47
2019-01-15T02:47:08.561Z,2.50
2019-01-15T02:50:15.766Z,3.00
2019-01-15T02:53:20.730Z,2.57
2019-01-15T02:56:25.905Z,2.13
2019-01-15T02:59:31.017Z,2.50
2019-01-15T03:02:36.113Z,2.23
2019-01-15T03:05:41.113Z,2.67
2019-01-15T03:08:45.994Z,2.17
2019-01-15T03:11:50.906Z,2.40
2019-01-15T03:14:55.879Z,2.60
2019-01-15T03:18:00.844Z,2.50
2019-01-15T03:21:05.817Z,1.73
2019-01-15T03:24:10.624Z,2.30
2019-01-15T03:27:15.604Z,2.00
2019-01-15T03:30:22.682Z,3.13
2019-01-15T03:33:27.819Z,2.10
2019-01-15T03:36:32.818Z,2.03
2019-01-15T03:39:40.965Z,2.37
2019-01-15T03:42:46.033Z,2.10
2019-01-15T03:45:51.068Z,2.20
2019-01-15T03:48:56.336Z,2.17
2019-01-15T03:52:01.520Z,1.93
2019-01-15T03:55:06.832Z,2.57
2019-01-15T03:58:11.847Z,2.63
2019-01-15T04:01:16.883Z,1.83
2019-01-15T04:04:21.809Z,2.87
2019-01-15T04:07:26.812Z,2.53
2019-01-15T04:10:31.768Z,2.67
2019-01-15T04:13:36.585Z,2.80
2019-01-15T04:16:41.551Z,2.07
2019-01-15T04:19:46.446Z,2.33
2019-01-15T04:22:51.501Z,2.40
2019-01-15T04:25:56.352Z,2.70
2019-01-15T04:29:01.285Z,2.10
2019-01-15T04:32:06.228Z,2.60
2019-01-15T04:35:11.442Z,2.50
2019-01-15T04:38:16.284Z,3.00
2019-01-15T04:41:21.352Z,3.10
2019-01-15T04:44:26.444Z,2.73
2019-01-15T04:47:31.443Z,2.80
2019-01-15T04:50:36.522Z,3.07
2019-01-15T04:53:42.481Z,2.43
2019-01-15T04:56:47.368Z,3.10
2019-01-15T04:59:52.602Z,2.97
2019-01-15T05:03:00.983Z,3.23
2019-01-15T05:06:05.967Z,3.20
2019-01-15T05:09:10.782Z,3.10
2019-01-15T05:12:15.762Z,2.27
2019-01-15T05:15:20.922Z,2.60
2019-01-15T05:18:26.064Z,3.63
2019-01-15T05:21:31.062Z,4.20
2019-01-15T05:24:36.165Z,4.03
2019-01-15T05:27:41.107Z,3.47
2019-01-15T05:30:45.965Z,2.83
2019-01-15T05:33:51.008Z,2.70
2019-01-15T05:36:56.024Z,2.33
2019-01-15T05:40:01.044Z,2.20
2019-01-15T05:43:06.302Z,2.80
2019-01-15T05:46:11.533Z,3.00
2019-01-15T05:49:16.497Z,2.80
2019-01-15T05:52:21.397Z,2.33
2019-01-15T05:55:26.563Z,3.10
2019-01-15T05:58:31.533Z,4.77
2019-01-15T06:01:36.846Z,4.40
2019-01-15T06:04:41.960Z,3.70
2019-01-15T06:07:46.931Z,6.27
2019-01-15T06:10:51.889Z,7.13
2019-01-15T06:13:56.727Z,6.90
2019-01-15T06:17:01.641Z,4.23
2019-01-15T06:20:08.650Z,3.67
2019-01-15T06:23:13.831Z,5.57
2019-01-15T06:26:20.299Z,4.90
2019-01-15T06:29:25.555Z,5.80
2019-01-15T06:32:30.625Z,5.87
2019-01-15T06:35:35.833Z,4.97
2019-01-15T06:38:40.793Z,4.40
2019-01-15T06:41:45.915Z,4.47
2019-01-15T06:44:53.936Z,4.63
2019-01-15T06:47:59.055Z,3.10
2019-01-15T06:51:04.232Z,3.77
2019-01-15T06:54:09.056Z,4.40
2019-01-15T06:57:14.159Z,4.97
2019-01-15T07:00:22.634Z,3.50
2019-01-15T07:03:27.601Z,4.93
2019-01-15T07:06:32.494Z,3.73
2019-01-15T07:09:37.438Z,3.00
2019-01-15T07:12:42.385Z,2.30
2019-01-15T07:15:47.524Z,2.37
2019-01-15T07:18:52.945Z,2.53
2019-01-15T07:21:58.096Z,2.50
2019-01-15T07:25:03.038Z,4.43
2019-01-15T07:28:08.394Z,3.50
2019-01-15T07:31:13.519Z,2.70
2019-01-15T07:34:18.570Z,2.33
2019-01-15T07:37:23.584Z,3.40
2019-01-15T07:40:28.522Z,2.50
2019-01-15T07:43:33.458Z,2.57
2019-01-15T07:46:38.638Z,2.90
2019-01-15T07:49:43.653Z,2.90
2019-01-15T07:52:48.819Z,2.60
2019-01-15T07:55:54.152Z,3.10
2019-01-15T07:58:59.289Z,3.93
2019-01-15T08:02:04.619Z,3.03
2019-01-15T08:05:10.510Z,2.57
2019-01-15T08:08:15.451Z,2.67
2019-01-15T08:11:20.332Z,1.70
2019-01-15T08:14:25.355Z,2.43
2019-01-15T08:17:30.489Z,2.57
2019-01-15T08:20:35.363Z,2.33
2019-01-15T08:23:40.490Z,2.37
2019-01-15T08:26:46.159Z,1.60
2019-01-15T08:29:51.268Z,1.33
2019-01-15T08:32:56.103Z,1.33
2019-01-15T08:36:01.117Z,1.73
2019-01-15T08:39:08.545Z,1.40
2019-01-15T08:42:13.445Z,1.63
2019-01-15T08:45:18.716Z,1.73
2019-01-15T08:48:25.692Z,1.57
2019-01-15T08:51:30.989Z,1.30
2019-01-15T08:54:35.955Z,1.57
2019-01-15T08:57:41.317Z,1.80
2019-01-15T09:00:46.300Z,1.70
2019-01-15T09:03:51.455Z,1.93
2019-01-15T09:06:56.357Z,5.83
2019-01-15T09:10:01.241Z,3.17
2019-01-15T09:13:06.321Z,2.80
2019-01-15T09:16:14.259Z,2.77
2019-01-15T09:19:19.357Z,2.80
2019-01-15T09:22:24.434Z,1.43
2019-01-15T09:25:29.859Z,2.37
2019-01-15T09:28:34.733Z,2.67
2019-01-15T09:31:39.724Z,1.73
2019-01-15T09:34:44.608Z,2.03
2019-01-15T09:37:50.763Z,3.13
2019-01-15T09:40:55.665Z,2.90
2019-01-15T09:44:00.802Z,2.50
2019-01-15T09:47:06.008Z,2.00
2019-01-15T09:50:11.735Z,2.37
2019-01-15T09:53:16.737Z,2.80
2019-01-15T09:56:21.937Z,1.87
2019-01-15T09:59:26.865Z,2.00
2019-01-15T10:02:33.520Z,2.30
2019-01-15T10:05:38.570Z,1.90
2019-01-15T10:08:43.751Z,1.90
2019-01-15T10:11:48.885Z,1.97
2019-01-15T10:14:53.773Z,1.60
2019-01-15T10:17:58.660Z,2.20
2019-01-15T10:21:03.640Z,3.10
2019-01-15T10:24:09.678Z,2.80
2019-01-15T10:27:15.728Z,2.37
2019-01-15T10:30:41.040Z,1.63
2019-01-15T10:33:50.702Z,2.43
2019-01-15T10:36:53.744Z,2.17
2019-01-15T10:39:58.653Z,3.47
2019-01-15T10:43:03.842Z,3.47
2019-01-15T10:46:08.783Z,3.67
2019-01-15T10:49:13.714Z,6.23
2019-01-15T10:52:18.877Z,4.67
2019-01-15T10:55:23.851Z,4.70
2019-01-15T10:58:28.885Z,3.73
2019-01-15T11:01:33.801Z,3.27
2019-01-15T11:04:38.839Z,3.10
2019-01-15T11:07:43.768Z,2.30
2019-01-15T11:10:54.876Z,3.10
2019-01-15T11:13:59.899Z,2.40
2019-01-15T11:17:04.989Z,2.47
2019-01-15T11:20:11.904Z,2.03
2019-01-15T11:23:17.229Z,1.70
2019-01-15T11:26:22.386Z,2.00
2019-01-15T11:29:27.343Z,1.30
2019-01-15T11:32:32.453Z,1.47
2019-01-15T11:35:37.431Z,1.77
2019-01-15T11:38:42.529Z,1.97
2019-01-15T11:41:47.614Z,1.77
2019-01-15T11:44:52.807Z,1.57
2019-01-15T11:47:57.790Z,1.20
2019-01-15T11:51:02.799Z,1.57
2019-01-15T11:54:08.128Z,0.47
2019-01-15T11:57:13.265Z,0.53
2019-01-15T12:00:26.085Z,0.60
2019-01-15T12:03:53.070Z,1.07
2019-01-15T12:07:15.517Z,0.80
2019-01-15T12:10:28.338Z,0.67
2019-01-15T12:13:55.216Z,0.60
2019-01-15T12:17:14.341Z,0.77
2019-01-15T12:20:44.074Z,0.70
2019-01-15T12:24:10.215Z,0.60
2019-01-15T12:27:33.006Z,0.63
2019-01-15T12:31:15.063Z,0.80
2019-01-15T12:34:38.985Z,0.50
2019-01-15T12:38:18.637Z,0.50
2019-01-15T12:41:54.759Z,1.07
2019-01-15T12:45:18.402Z,0.70
2019-01-15T12:48:42.367Z,1.07
2019-01-15T12:52:05.203Z,0.40
2019-01-15T12:55:34.884Z,0.30
2019-01-15T12:59:01.959Z,0.83
2019-01-15T13:02:44.032Z,0.70
2019-01-15T13:06:23.082Z,0.50
2019-01-15T13:09:45.720Z,1.00
2019-01-15T13:13:09.916Z,0.40
2019-01-15T13:16:33.676Z,0.60
2019-01-15T13:19:48.383Z,0.73
2019-01-15T13:23:00.782Z,0.80
2019-01-15T13:26:26.033Z,0.77
2019-01-15T13:29:48.822Z,0.70
2019-01-15T13:33:12.905Z,1.10
2019-01-15T13:36:53.163Z,1.47
2019-01-15T13:40:16.869Z,1.17
2019-01-15T13:43:46.847Z,1.03
2019-01-15T13:47:13.917Z,1.07
2019-01-15T13:50:37.469Z,1.33
2019-01-15T13:54:00.277Z,0.60
2019-01-15T13:57:30.557Z,0.53
2019-01-15T14:01:06.500Z,1.07
2019-01-15T14:04:28.975Z,4.70
2019-01-15T14:07:58.710Z,3.50
2019-01-15T14:11:25.232Z,2.33
2019-01-15T14:14:58.346Z,1.43
2019-01-15T14:18:31.274Z,0.93
2019-01-15T14:21:54.349Z,2.03
2019-01-15T14:25:14.751Z,1.07
2019-01-15T14:28:44.532Z,1.00
2019-01-15T14:32:07.633Z,1.13
2019-01-15T14:35:40.832Z,1.13
2019-01-15T14:39:00.413Z,1.10
2019-01-15T14:42:42.815Z,1.47
2019-01-15T14:46:09.421Z,1.20
2019-01-15T14:49:35.871Z,1.20
2019-01-15T14:52:58.737Z,1.00
2019-01-15T14:56:28.475Z,1.03
2019-01-15T15:00:01.068Z,1.43
2019-01-15T15:03:31.197Z,2.50
2019-01-15T15:06:55.062Z,1.77
2019-01-15T15:10:24.739Z,1.70
2019-01-15T15:13:42.800Z,3.40
2019-01-15T15:17:09.241Z,2.80
2019-01-15T15:20:36.385Z,1.60
2019-01-15T15:24:06.473Z,1.73
2019-01-15T15:27:33.376Z,1.90
2019-01-15T15:30:57.279Z,1.50
2019-01-15T15:34:20.035Z,1.60
2019-01-15T15:37:47.168Z,4.10
2019-01-15T15:41:18.439Z,8.13
2019-01-15T15:44:42.715Z,2.60
2019-01-15T15:48:05.242Z,3.07
2019-01-15T15:51:35.060Z,2.73
2019-01-15T15:54:57.813Z,3.43
2019-01-15T15:58:10.736Z,3.23
2019-01-15T16:01:40.689Z,4.03
2019-01-15T16:05:03.129Z,5.57
2019-01-15T16:08:25.943Z,6.13
2019-01-15T16:11:49.869Z,6.13
2019-01-15T16:15:31.870Z,5.07
2019-01-15T16:18:47.427Z,5.13
2019-01-15T16:22:11.398Z,5.73
2019-01-15T16:25:38.411Z,5.97
2019-01-15T16:29:10.864Z,8.70
2019-01-15T16:32:32.392Z,6.93
2019-01-15T16:35:56.414Z,24.20
2019-01-15T16:39:23.064Z,24.63
2019-01-15T16:42:45.929Z,20.77
2019-01-15T16:46:26.192Z,10.30
2019-01-15T16:49:56.586Z,8.37
2019-01-15T16:53:35.928Z,8.77
2019-01-15T16:57:00.112Z,8.70
2019-01-15T17:00:36.515Z,7.67
2019-01-15T17:04:12.955Z,8.40
2019-01-15T17:07:47.266Z,8.10
2019-01-15T17:11:14.206Z,6.67
2019-01-15T17:14:56.654Z,7.33
2019-01-15T17:18:22.158Z,6.80
2019-01-15T17:21:40.708Z,7.67
2019-01-15T17:25:07.590Z,7.20
2019-01-15T17:28:30.391Z,8.70
2019-01-15T17:31:57.601Z,8.80
2019-01-15T17:35:20.527Z,7.73
2019-01-15T17:38:47.722Z,8.63
2019-01-15T17:42:10.021Z,9.70
2019-01-15T17:45:32.730Z,10.13
2019-01-15T17:48:55.669Z,10.17
2019-01-15T17:52:22.375Z,11.27
2019-01-15T17:55:55.474Z,12.13
2019-01-15T17:59:17.934Z,12.43
2019-01-15T18:02:47.806Z,10.50
2019-01-15T18:06:19.557Z,9.00
2019-01-15T18:09:43.377Z,9.10
2019-01-15T18:13:10.215Z,9.00
2019-01-15T18:16:37.374Z,9.13
2019-01-15T18:20:19.581Z,8.40
2019-01-15T18:23:42.274Z,8.87
2019-01-15T18:27:06.188Z,7.77
2019-01-15T18:30:41.101Z,9.40
2019-01-15T18:34:04.856Z,8.03
2019-01-15T18:37:27.894Z,10.60
2019-01-15T18:40:53.732Z,13.20
2019-01-15T18:44:16.236Z,10.83
2019-01-15T18:47:36.377Z,9.03
2019-01-15T18:50:59.780Z,12.20
2019-01-15T18:54:22.491Z,11.50
2019-01-15T18:57:45.580Z,10.50
2019-01-15T19:01:09.829Z,11.50
2019-01-15T19:04:43.021Z,10.90
2019-01-15T19:08:10.879Z,9.90
2019-01-15T19:11:26.296Z,8.97
2019-01-15T19:14:48.846Z,12.87
2019-01-15T19:18:12.945Z,13.03
2019-01-15T19:21:35.300Z,11.77
2019-01-15T19:24:59.337Z,9.53
2019-01-15T19:28:23.334Z,10.43
2019-01-15T19:31:44.954Z,9.57
2019-01-15T19:35:07.345Z,10.70
2019-01-15T19:38:34.307Z,10.00
2019-01-15T19:41:58.867Z,10.97
2019-01-15T19:45:25.895Z,13.00
2019-01-15T19:48:52.849Z,10.90
2019-01-15T19:52:14.178Z,10.23
2019-01-15T19:55:47.312Z,10.70
2019-01-15T19:59:11.387Z,12.30
2019-01-15T20:02:44.723Z,12.37
2019-01-15T20:06:13.374Z,11.43
2019-01-15T20:09:34.638Z,11.53
2019-01-15T20:12:57.266Z,13.50
2019-01-15T20:16:23.869Z,11.60
2019-01-15T20:19:50.672Z,12.03
2019-01-15T20:23:14.539Z,11.23
2019-01-15T20:26:37.400Z,12.40
2019-01-15T20:30:10.230Z,12.37
2019-01-15T20:33:37.623Z,13.20
2019-01-15T20:37:00.885Z,13.47
2019-01-15T20:40:42.638Z,13.70
2019-01-15T20:44:05.658Z,13.80
2019-01-15T20:47:30.001Z,12.10
2019-01-15T20:50:53.672Z,11.93
2019-01-15T20:54:16.208Z,10.73
2019-01-15T20:57:39.017Z,11.00
2019-01-15T21:01:15.089Z,11.43
2019-01-15T21:04:46.478Z,10.43
2019-01-15T21:08:22.521Z,10.90
2019-01-15T21:11:49.306Z,9.90
2019-01-15T21:15:13.157Z,10.67
2019-01-15T21:18:42.877Z,8.13
2019-01-15T21:22:15.859Z,8.80
2019-01-15T21:25:54.923Z,9.07
2019-01-15T21:29:19.246Z,8.13
2019-01-15T21:32:55.141Z,7.53
2019-01-15T21:36:12.760Z,6.93
2019-01-15T21:39:35.834Z,7.10
2019-01-15T21:42:58.476Z,8.23
2019-01-15T21:46:25.125Z,8.50
2019-01-15T21:49:48.553Z,11.33
2019-01-15T21:53:11.072Z,9.57
2019-01-15T21:56:53.324Z,7.90
2019-01-15T22:00:10.309Z,8.60
2019-01-15T22:03:22.485Z,8.47
2019-01-15T22:06:51.371Z,8.40
2019-01-15T22:10:33.573Z,9.10
2019-01-15T22:13:56.507Z,8.47
2019-01-15T22:17:19.302Z,7.40
2019-01-15T22:20:57.415Z,8.03
2019-01-15T22:24:31.410Z,7.30
2019-01-15T22:27:48.029Z,8.80
2019-01-15T22:31:30.161Z,8.20
2019-01-15T22:34:55.906Z,7.50
2019-01-15T22:38:22.605Z,7.40
2019-01-15T22:41:41.779Z,7.00
2019-01-15T22:45:11.793Z,8.50
2019-01-15T22:48:54.354Z,7.27
2019-01-15T22:52:36.723Z,7.53
2019-01-15T22:55:52.779Z,9.77
2019-01-15T22:59:16.485Z,9.00
2019-01-15T23:02:55.760Z,8.90
2019-01-15T23:06:28.739Z,9.00
2019-01-15T23:09:56.257Z,7.10
2019-01-15T23:13:18.802Z,6.10
2019-01-15T23:16:42.112Z,6.30
2019-01-15T23:19:58.225Z,6.17
2019-01-15T23:23:40.342Z,6.90
2019-01-15T23:26:55.669Z,6.23
2019-01-15T23:30:11.735Z,6.60
2019-01-15T23:33:41.614Z,4.93
2019-01-15T23:37:05.316Z,5.20
2019-01-15T23:40:35.471Z,5.50
2019-01-15T23:43:58.021Z,5.60
2019-01-15T23:47:22.339Z,4.93
2019-01-15T23:50:35.584Z,5.20
2019-01-15T23:54:17.924Z,6.37
2019-01-15T23:57:50.982Z,5.83
